createdAt,value
2022-10-05T00:01:30.516Z,99453.72
2022-10-05T00:04:02.438Z,99459.13
2022-10-05T00:06:30.573Z,99462.44
2022-10-05T00:08:57.532Z,99456.59
2022-10-05T00:11:24.311Z,99477.28
2022-10-05T00:13:51.217Z,99470.88
2022-10-05T00:16:20.614Z,99458.75
2022-10-05T00:18:52.365Z,99459.13
2022-10-05T00:21:27.239Z,99458.88
2022-10-05T00:23:56.779Z,99467.44
2022-10-05T00:26:25.547Z,99465.28
2022-10-05T00:28:53.635Z,99456.63
2022-10-05T00:31:26.537Z,99459.09
2022-10-05T00:33:55.217Z,99457.22
2022-10-05T00:36:22.519Z,99461.81
2022-10-05T00:38:49.671Z,99461.00
2022-10-05T00:41:48.858Z,99474.56
2022-10-05T00:44:48.187Z,99473.97
2022-10-05T00:47:49.576Z,99464.44
2022-10-05T00:50:35.499Z,99457.19
2022-10-05T00:53:40.125Z,99457.91
2022-10-05T00:56:16.695Z,99453.38
2022-10-05T00:59:30.145Z,99449.06
2022-10-05T01:02:23.989Z,99444.91
2022-10-05T01:04:59.516Z,99442.16
2022-10-05T01:08:04.751Z,99445.28
2022-10-05T01:10:48.774Z,99441.91
2022-10-05T01:13:38.226Z,99439.94
2022-10-05T01:16:14.494Z,99438.34
2022-10-05T01:18:49.250Z,99445.53
2022-10-05T01:21:23.613Z,99442.88
2022-10-05T01:24:23.386Z,99446.34
2022-10-05T01:27:14.393Z,99448.22
2022-10-05T01:29:47.756Z,99435.31
2022-10-05T01:32:26.286Z,99442.81
2022-10-05T01:35:14.585Z,99434.69
2022-10-05T01:38:24.838Z,99444.41
2022-10-05T01:41:32.104Z,99439.69
2022-10-05T01:44:16.913Z,99437.78
2022-10-05T01:46:49.766Z,99439.31
2022-10-05T01:49:28.594Z,99426.75
2022-10-05T01:52:47.553Z,99435.66
2022-10-05T01:55:29.343Z,99425.66
2022-10-05T01:58:28.306Z,99428.47
2022-10-05T02:01:04.423Z,99423.72
2022-10-05T02:03:37.662Z,99416.81
2022-10-05T02:06:16.847Z,99413.50
2022-10-05T02:08:50.824Z,99398.03
2022-10-05T02:11:18.759Z,99393.44
2022-10-05T02:13:53.439Z,99395.38
2022-10-05T02:16:34.724Z,99376.41
2022-10-05T02:19:17.126Z,99388.06
2022-10-05T02:21:46.096Z,99382.66
2022-10-05T02:24:18.953Z,99387.97
2022-10-05T02:26:46.135Z,99388.81
2022-10-05T02:29:15.811Z,99377.13
2022-10-05T02:32:03.806Z,99378.06
2022-10-05T02:34:37.932Z,99372.63
2022-10-05T02:37:42.338Z,99373.56
2022-10-05T02:40:18.200Z,99376.41
2022-10-05T02:42:56.960Z,99383.06
2022-10-05T02:45:43.816Z,99392.28
2022-10-05T02:48:45.154Z,99391.06
2022-10-05T02:51:24.565Z,99396.34
2022-10-05T02:53:57.874Z,99400.13
2022-10-05T02:56:32.707Z,99390.75
2022-10-05T02:59:32.025Z,99402.06
2022-10-05T03:02:13.775Z,99398.94
2022-10-05T03:05:07.088Z,99403.00
2022-10-05T03:07:47.421Z,99399.41
2022-10-05T03:10:53.080Z,99395.00
2022-10-05T03:14:08.146Z,99392.53
2022-10-05T03:16:55.304Z,99379.22
2022-10-05T03:20:11.602Z,99389.81
2022-10-05T03:22:41.329Z,99397.75
2022-10-05T03:25:37.621Z,99396.13
2022-10-05T03:28:17.189Z,99400.25
2022-10-05T03:31:19.620Z,99391.69
2022-10-05T03:33:55.961Z,99391.56
2022-10-05T03:36:49.413Z,99389.53
2022-10-05T03:39:27.011Z,99388.47
2022-10-05T03:42:25.219Z,99387.28
2022-10-05T03:45:03.791Z,99388.50
2022-10-05T03:47:43.762Z,99381.16
2022-10-05T03:50:46.649Z,99374.72
2022-10-05T03:53:24.432Z,99374.56
2022-10-05T03:56:03.330Z,99375.78
2022-10-05T03:58:40.154Z,99368.50
2022-10-05T04:01:12.564Z,99365.06
2022-10-05T04:03:48.934Z,99366.22
2022-10-05T04:06:37.054Z,99346.16
2022-10-05T04:09:10.622Z,99345.38
2022-10-05T04:11:41.021Z,99346.69
2022-10-05T04:14:14.713Z,99357.78
2022-10-05T04:16:51.082Z,99361.13
2022-10-05T04:19:34.492Z,99351.09
2022-10-05T04:22:29.764Z,99358.53
2022-10-05T04:25:01.151Z,99343.72
2022-10-05T04:27:33.929Z,99337.56
2022-10-05T04:30:08.914Z,99337.16
2022-10-05T04:32:48.718Z,99329.03
2022-10-05T04:35:50.845Z,99332.97
2022-10-05T04:38:56.510Z,99331.13
2022-10-05T04:42:12.378Z,99332.94
2022-10-05T04:45:20.671Z,99332.75
2022-10-05T04:48:22.445Z,99325.47
2022-10-05T04:51:06.504Z,99327.16
2022-10-05T04:53:45.095Z,99321.94
2022-10-05T04:56:18.986Z,99318.75
2022-10-05T04:59:00.545Z,99321.59
2022-10-05T05:08:36.331Z,99321.25
2022-10-05T05:11:42.266Z,99321.84
2022-10-05T05:14:39.064Z,99333.47
2022-10-05T05:17:46.981Z,99334.13
2022-10-05T05:20:29.144Z,99339.56
2022-10-05T05:23:12.309Z,99339.19
2022-10-05T05:26:01.251Z,99331.63
2022-10-05T05:29:09.390Z,99323.91
2022-10-05T05:31:46.996Z,99328.06
2022-10-05T05:34:47.842Z,99330.47
2022-10-05T05:38:02.320Z,99323.16
2022-10-05T05:40:34.646Z,99322.00
2022-10-05T05:43:23.905Z,99321.84
2022-10-05T05:46:01.727Z,99332.44
2022-10-05T05:48:39.838Z,99326.66
2022-10-05T05:51:18.535Z,99331.13
2022-10-05T05:53:48.127Z,99324.88
2022-10-05T05:56:18.008Z,99335.09
2022-10-05T05:58:57.590Z,99335.09
2022-10-05T06:01:33.689Z,99328.63
2022-10-05T06:04:29.299Z,99327.31
2022-10-05T06:06:58.347Z,99333.25
2022-10-05T06:09:34.339Z,99333.19
2022-10-05T06:12:08.686Z,99336.91
2022-10-05T06:14:40.033Z,99341.03
2022-10-05T06:17:24.906Z,99342.97
2022-10-05T06:19:53.878Z,99345.84
2022-10-05T06:22:44.349Z,99348.13
2022-10-05T06:25:26.117Z,99355.22
2022-10-05T06:28:12.327Z,99341.28
2022-10-05T06:30:49.684Z,99358.81
2022-10-05T06:33:59.926Z,99359.28
2022-10-05T06:37:03.649Z,99361.22
2022-10-05T06:40:15.615Z,99353.88
2022-10-05T06:43:26.300Z,99353.97
2022-10-05T06:46:04.334Z,99351.16
2022-10-05T06:48:52.358Z,99360.50
2022-10-05T06:52:04.744Z,99356.72
2022-10-05T06:54:50.125Z,99355.81
2022-10-05T06:57:37.335Z,99358.88
2022-10-05T07:03:55.628Z,99366.81
2022-10-05T07:06:34.897Z,99361.31
2022-10-05T07:09:21.963Z,99362.97
2022-10-05T07:12:27.544Z,99375.81
2022-10-05T07:15:35.323Z,99376.53
2022-10-05T07:18:26.131Z,99375.44
2022-10-05T07:21:24.969Z,99374.00
2022-10-05T07:24:23.024Z,99380.06
2022-10-05T07:27:23.322Z,99370.75
2022-10-05T07:30:02.850Z,99364.25
2022-10-05T07:33:14.966Z,99362.06
2022-10-05T07:36:37.027Z,99361.03
2022-10-05T07:39:17.872Z,99359.78
2022-10-05T07:41:51.955Z,99365.94
2022-10-05T07:44:28.444Z,99372.75
2022-10-05T07:46:58.261Z,99386.28
2022-10-05T07:49:57.361Z,99374.34
2022-10-05T07:52:32.319Z,99371.22
2022-10-05T07:55:20.239Z,99380.47
2022-10-05T08:01:32.484Z,99371.22
2022-10-05T08:04:21.216Z,99364.63
2022-10-05T08:06:51.302Z,99371.28
2022-10-05T08:09:41.421Z,99361.00
2022-10-05T08:12:25.948Z,99354.53
2022-10-05T08:14:53.956Z,99364.97
2022-10-05T08:17:32.516Z,99361.94
2022-10-05T08:20:06.794Z,99367.88
2022-10-05T08:22:35.272Z,99374.47
2022-10-05T08:25:09.805Z,99370.25
2022-10-05T08:27:43.876Z,99372.66
2022-10-05T08:30:12.801Z,99365.38
2022-10-05T08:33:13.438Z,99366.22
2022-10-05T08:35:45.715Z,99378.03
2022-10-05T08:38:18.718Z,99375.31
2022-10-05T08:41:23.045Z,99380.47
2022-10-05T08:44:26.532Z,99372.25
2022-10-05T08:47:16.231Z,99376.78
2022-10-05T08:50:02.814Z,99379.78
2022-10-05T08:52:37.684Z,99372.09
2022-10-05T08:55:22.445Z,99370.28
2022-10-05T08:58:26.994Z,99379.00
2022-10-05T09:01:25.968Z,99380.00
2022-10-05T09:04:30.210Z,99369.53
2022-10-05T09:07:22.396Z,99371.94
2022-10-05T09:10:42.983Z,99372.44
2022-10-05T09:13:23.220Z,99375.69
2022-10-05T09:16:27.493Z,99375.81
2022-10-05T09:19:23.134Z,99378.97
2022-10-05T09:22:06.657Z,99368.72
2022-10-05T09:24:55.999Z,99383.91
2022-10-05T09:27:39.892Z,99382.06
2022-10-05T09:30:50.894Z,99374.22
2022-10-05T09:33:43.714Z,99374.72
2022-10-05T09:36:49.424Z,99374.56
2022-10-05T09:42:36.198Z,99368.13
2022-10-05T09:45:21.767Z,99362.88
2022-10-05T09:48:45.455Z,99349.53
2022-10-05T09:51:33.722Z,99355.25
2022-10-05T09:54:33.895Z,99361.13
2022-10-05T09:57:44.121Z,99353.25
2022-10-05T10:00:36.472Z,99352.94
2022-10-05T10:03:45.134Z,99353.78
2022-10-05T10:06:40.719Z,99361.88
2022-10-05T10:09:40.626Z,99348.94
2022-10-05T10:15:54.120Z,99345.13
2022-10-05T10:18:28.754Z,99346.78
2022-10-05T10:21:07.838Z,99348.94
2022-10-05T10:24:10.364Z,99346.63
2022-10-05T10:27:01.889Z,99338.00
2022-10-05T10:30:19.179Z,99334.47
2022-10-05T10:33:14.414Z,99336.59
2022-10-05T10:36:17.816Z,99331.84
2022-10-05T10:39:23.391Z,99335.72
2022-10-05T10:42:26.072Z,99334.72
2022-10-05T10:45:14.506Z,99328.72
2022-10-05T10:48:13.540Z,99318.16
2022-10-05T10:51:12.175Z,99323.38
2022-10-05T10:54:23.678Z,99324.16
2022-10-05T10:57:22.263Z,99327.91
2022-10-05T11:00:08.146Z,99317.69
2022-10-05T11:03:16.911Z,99327.06
2022-10-05T11:06:24.391Z,99313.56
2022-10-05T11:08:57.622Z,99315.41
2022-10-05T11:31:21.181Z,99286.00
2022-10-05T11:34:27.290Z,99284.00
2022-10-05T11:51:29.481Z,99255.09
2022-10-05T11:54:18.720Z,99247.00
2022-10-05T11:57:05.245Z,99248.19
2022-10-05T11:59:36.962Z,99252.13
2022-10-05T12:02:33.830Z,99245.31
2022-10-05T12:05:52.193Z,99249.97
2022-10-05T12:12:15.355Z,99228.72
2022-10-05T12:14:52.240Z,99222.38
2022-10-05T12:17:27.661Z,99212.94
2022-10-05T12:20:00.037Z,99216.16
2022-10-05T12:22:33.177Z,99218.97
2022-10-05T12:25:29.649Z,99213.59
2022-10-05T12:27:59.822Z,99215.63
2022-10-05T12:30:53.414Z,99200.91
2022-10-05T12:33:28.012Z,99215.31
2022-10-05T12:35:59.472Z,99206.47
2022-10-05T12:38:35.458Z,99219.69
2022-10-05T12:41:19.120Z,99202.72
2022-10-05T12:44:11.670Z,99200.91
2022-10-05T12:47:28.390Z,99202.19
2022-10-05T12:50:54.043Z,99198.22
2022-10-05T12:53:53.008Z,99192.91
2022-10-05T12:56:37.744Z,99196.75
2022-10-05T12:59:25.471Z,99190.00
2022-10-05T13:02:01.464Z,99190.06
2022-10-05T13:04:52.409Z,99201.59
2022-10-05T13:07:51.371Z,99194.66
2022-10-05T13:10:28.241Z,99193.47
2022-10-05T13:13:29.895Z,99187.34
2022-10-05T13:16:15.687Z,99191.19
2022-10-05T13:19:13.898Z,99191.88
2022-10-05T13:22:14.474Z,99184.09
2022-10-05T13:24:53.121Z,99189.09
2022-10-05T13:27:24.191Z,99183.75
2022-10-05T13:30:03.830Z,99180.59
2022-10-05T13:32:36.028Z,99176.69
2022-10-05T13:35:28.575Z,99183.03
2022-10-05T13:38:18.094Z,99175.06
2022-10-05T13:41:11.923Z,99181.00
2022-10-05T13:44:22.921Z,99177.13
2022-10-05T13:47:01.946Z,99176.28
2022-10-05T13:49:55.980Z,99173.41
2022-10-05T13:52:56.919Z,99171.75
2022-10-05T13:56:02.167Z,99166.84
2022-10-05T13:59:08.161Z,99169.97
2022-10-05T14:01:43.921Z,99163.78
2022-10-05T14:04:20.858Z,99169.75
2022-10-05T14:06:49.189Z,99177.94
2022-10-05T14:09:43.736Z,99173.00
2022-10-05T14:12:14.616Z,99166.41
2022-10-05T14:14:45.609Z,99167.44
2022-10-05T14:17:38.101Z,99156.75
2022-10-05T14:20:26.159Z,99151.03
2022-10-05T14:23:17.318Z,99146.78
2022-10-05T14:25:54.311Z,99141.38
2022-10-05T14:28:39.773Z,99132.75
2022-10-05T14:31:15.763Z,99132.34
2022-10-05T14:33:42.899Z,99120.78
2022-10-05T14:36:21.322Z,99118.56
2022-10-05T14:38:56.003Z,99123.91
2022-10-05T14:41:27.831Z,99124.06
2022-10-05T14:44:06.211Z,99119.59
2022-10-05T14:46:34.883Z,99123.66
2022-10-05T14:49:26.786Z,99121.63
2022-10-05T14:51:54.900Z,99116.72
2022-10-05T14:54:54.599Z,99113.00
2022-10-05T14:57:27.714Z,99122.00
2022-10-05T15:00:18.875Z,99119.97
2022-10-05T15:03:04.715Z,99113.81
2022-10-05T15:05:40.527Z,99111.97
2022-10-05T15:08:36.173Z,99114.75
2022-10-05T15:11:20.891Z,99118.06
2022-10-05T15:13:48.861Z,99106.34
2022-10-05T15:16:25.207Z,99106.53
2022-10-05T15:19:16.341Z,99112.25
2022-10-05T15:21:49.070Z,99100.16
2022-10-05T15:24:20.378Z,99103.00
2022-10-05T15:27:02.067Z,99106.91
2022-10-05T15:29:55.874Z,99099.72
2022-10-05T15:33:01.807Z,99097.25
2022-10-05T15:36:17.313Z,99094.78
2022-10-05T15:39:14.023Z,99084.88
2022-10-05T15:42:00.604Z,99094.22
2022-10-05T15:44:44.533Z,99078.69
2022-10-05T15:47:28.249Z,99071.28
2022-10-05T15:50:16.191Z,99085.97
2022-10-05T15:53:10.644Z,99080.44
2022-10-05T15:55:59.093Z,99080.63
2022-10-05T15:58:54.762Z,99080.38
2022-10-05T16:01:44.807Z,99074.97
2022-10-05T16:04:17.142Z,99073.88
2022-10-05T16:07:21.096Z,99068.91
2022-10-05T16:10:17.685Z,99071.22
2022-10-05T16:13:29.834Z,99074.22
2022-10-05T16:16:12.215Z,99073.16
2022-10-05T16:18:59.982Z,99077.84
2022-10-05T16:21:39.191Z,99087.91
2022-10-05T16:24:37.542Z,99080.84
2022-10-05T16:27:17.744Z,99082.16
2022-10-05T16:30:02.499Z,99087.72
2022-10-05T16:33:05.190Z,99079.88
2022-10-05T16:36:08.378Z,99082.06
2022-10-05T16:38:49.927Z,99079.53
2022-10-05T16:41:48.872Z,99087.66
2022-10-05T16:45:06.938Z,99091.03
2022-10-05T16:48:01.002Z,99093.09
2022-10-05T16:50:57.524Z,99082.59
2022-10-05T16:53:46.154Z,99095.97
2022-10-05T16:56:17.267Z,99084.47
2022-10-05T16:59:00.341Z,99092.34
2022-10-05T17:01:59.603Z,99111.41
2022-10-05T17:08:15.437Z,99115.91
2022-10-05T17:11:17.720Z,99123.13
2022-10-05T17:13:50.888Z,99123.63
2022-10-05T17:16:50.724Z,99126.66
2022-10-05T17:22:53.662Z,99138.75
2022-10-05T17:25:53.675Z,99138.75
2022-10-05T17:28:23.531Z,99141.16
2022-10-05T17:31:07.881Z,99141.59
2022-10-05T17:34:13.673Z,99147.19
2022-10-05T17:36:48.314Z,99147.38
2022-10-05T17:39:17.912Z,99153.69
2022-10-05T17:41:45.564Z,99160.75
2022-10-05T17:44:24.640Z,99158.84
2022-10-05T17:46:56.777Z,99173.03
2022-10-05T17:50:31.806Z,99174.09
2022-10-05T17:53:40.854Z,99186.63
2022-10-05T17:56:08.410Z,99194.44
2022-10-05T17:58:56.733Z,99199.09
2022-10-05T18:01:40.333Z,99196.56
2022-10-05T18:04:38.947Z,99197.75
2022-10-05T18:07:17.093Z,99193.13
2022-10-05T18:10:30.514Z,99199.28
2022-10-05T18:13:33.231Z,99201.16
2022-10-05T18:16:00.293Z,99204.06
2022-10-05T18:18:37.105Z,99192.66
2022-10-05T18:21:23.785Z,99204.69
2022-10-05T18:24:04.274Z,99207.53
2022-10-05T18:27:17.765Z,99209.94
2022-10-05T18:30:05.835Z,99212.09
2022-10-05T18:32:40.533Z,99208.88
2022-10-05T18:35:18.748Z,99220.16
2022-10-05T18:38:09.015Z,99212.03
2022-10-05T18:41:01.035Z,99222.31
2022-10-05T18:44:21.720Z,99228.78
2022-10-05T18:47:20.907Z,99229.31
2022-10-05T18:50:13.971Z,99228.50
2022-10-05T18:53:03.417Z,99224.22
2022-10-05T18:55:35.255Z,99224.53
2022-10-05T18:58:37.431Z,99228.19
2022-10-05T19:01:43.558Z,99224.03
2022-10-05T19:04:38.572Z,99227.03
2022-10-05T19:07:25.570Z,99234.00
2022-10-05T19:10:23.370Z,99231.47
2022-10-05T19:13:10.838Z,99239.09
2022-10-05T19:16:26.614Z,99233.09
2022-10-05T19:19:39.952Z,99229.63
2022-10-05T19:22:40.507Z,99241.38
2022-10-05T19:25:38.572Z,99242.34
2022-10-05T19:28:14.339Z,99248.63
2022-10-05T19:31:14.752Z,99241.66
2022-10-05T19:34:03.209Z,99252.91
2022-10-05T19:37:14.284Z,99249.09
2022-10-05T19:39:55.764Z,99255.91
2022-10-05T19:42:51.664Z,99256.84
2022-10-05T19:45:23.670Z,99258.53
2022-10-05T19:48:43.328Z,99263.84
2022-10-05T19:51:31.366Z,99263.84
2022-10-05T19:54:02.624Z,99260.50
2022-10-05T19:56:34.403Z,99267.44
2022-10-05T19:59:13.514Z,99270.22
2022-10-05T20:01:48.863Z,99270.63
2022-10-05T20:04:55.163Z,99273.09
2022-10-05T20:07:23.153Z,99277.69
2022-10-05T20:10:19.118Z,99269.78
2022-10-05T20:12:52.514Z,99274.28
2022-10-05T20:15:43.734Z,99281.38
2022-10-05T20:18:57.804Z,99283.53
2022-10-05T20:21:39.632Z,99288.94
2022-10-05T20:24:11.654Z,99295.91
2022-10-05T20:27:02.116Z,99289.97
2022-10-05T20:29:30.485Z,99296.06
2022-10-05T20:31:57.629Z,99297.94
2022-10-05T20:34:25.151Z,99294.28
2022-10-05T20:36:52.158Z,99301.03
2022-10-05T20:39:19.603Z,99305.19
2022-10-05T20:41:46.446Z,99313.13
2022-10-05T20:44:13.844Z,99309.09
2022-10-05T20:46:43.551Z,99315.38
2022-10-05T20:49:10.835Z,99313.06
2022-10-05T20:51:38.857Z,99322.94
2022-10-05T20:54:05.894Z,99321.13
2022-10-05T20:56:33.242Z,99320.16
2022-10-05T20:59:00.651Z,99325.75
2022-10-05T21:01:29.099Z,99322.66
2022-10-05T21:03:56.547Z,99328.09
2022-10-05T21:06:26.511Z,99336.59
2022-10-05T21:08:54.442Z,99346.16
2022-10-05T21:11:21.623Z,99339.03
2022-10-05T21:13:49.767Z,99344.75
2022-10-05T21:16:18.802Z,99351.53
2022-10-05T21:18:49.218Z,99349.25
2022-10-05T21:21:17.566Z,99346.25
2022-10-05T21:23:45.745Z,99343.75
2022-10-05T21:26:13.187Z,99348.19
2022-10-05T21:28:40.641Z,99349.19
2022-10-05T21:31:08.694Z,99359.25
2022-10-05T21:33:36.413Z,99355.09
2022-10-05T21:36:03.980Z,99358.06
2022-10-05T21:38:31.031Z,99356.94
2022-10-05T21:40:58.004Z,99366.66
2022-10-05T21:43:25.734Z,99367.44
2022-10-05T21:45:55.707Z,99363.94
2022-10-05T21:48:22.870Z,99359.81
2022-10-05T21:50:49.670Z,99363.28
2022-10-05T21:53:18.159Z,99371.88
2022-10-05T21:55:47.233Z,99364.94
2022-10-05T21:58:15.110Z,99370.91
2022-10-05T22:00:42.235Z,99367.28
2022-10-05T22:03:09.122Z,99370.22
2022-10-05T22:05:36.814Z,99367.53
2022-10-05T22:08:04.672Z,99366.22
2022-10-05T22:10:32.590Z,99365.78
2022-10-05T22:13:03.900Z,99381.63
2022-10-05T22:15:31.615Z,99367.22
2022-10-05T22:18:00.109Z,99385.06
2022-10-05T22:20:27.251Z,99385.19
2022-10-05T22:22:54.239Z,99382.53
2022-10-05T22:25:21.903Z,99377.38
2022-10-05T22:27:49.427Z,99375.69
2022-10-05T22:30:16.486Z,99371.00
2022-10-05T22:32:43.902Z,99382.91
2022-10-05T22:35:11.862Z,99387.00
2022-10-05T22:37:39.059Z,99385.19
2022-10-05T22:40:06.900Z,99387.28
2022-10-05T22:42:33.797Z,99395.38
2022-10-05T22:45:00.629Z,99396.06
2022-10-05T22:47:27.497Z,99394.56
2022-10-05T22:49:54.342Z,99395.00
2022-10-05T22:52:21.121Z,99398.09
2022-10-05T22:54:47.953Z,99404.22
2022-10-05T22:57:14.718Z,99411.66
2022-10-05T22:59:41.998Z,99399.09
2022-10-05T23:02:09.007Z,99404.50
2022-10-05T23:04:35.971Z,99408.75
2022-10-05T23:07:03.134Z,99410.91
2022-10-05T23:09:29.929Z,99408.44
2022-10-05T23:11:57.438Z,99412.41
2022-10-05T23:14:24.406Z,99418.16
2022-10-05T23:16:51.812Z,99433.25
2022-10-05T23:19:19.097Z,99429.91
2022-10-05T23:21:46.001Z,99435.03
2022-10-05T23:24:12.884Z,99446.66
2022-10-05T23:26:39.919Z,99443.25
2022-10-05T23:29:06.924Z,99436.47
2022-10-05T23:31:34.743Z,99434.41
2022-10-05T23:34:01.996Z,99455.91
2022-10-05T23:36:33.442Z,99455.38
2022-10-05T23:39:00.565Z,99466.00
2022-10-05T23:41:27.725Z,99462.69
2022-10-05T23:43:57.467Z,99474.38
2022-10-05T23:46:24.448Z,99475.03
2022-10-05T23:48:51.451Z,99470.44
2022-10-05T23:51:18.471Z,99479.72
2022-10-05T23:53:45.548Z,99482.75
2022-10-05T23:56:13.190Z,99480.84
2022-10-05T23:58:40.852Z,99475.69
